tititudorancea.com
Station Historical Data
Daily Summary for November 28, 2018 Units:  Metric    English   Both
« Previous Day
Next Day »
Daily Weekly Monthly Yearly Custom
  High: Low: Average:
Temperature: -17.8 °C 10.5 °C 14.7 °C
Dew Point: -17.8 °C 8.7 °C 10.2 °C
Humidity: Humidity % 49 % 76 %
Wind Speed: 0 km/h 7.4 km/h 24.9 km/h
Wind Gust: 0 km/h - -
Wind:- - SSW
Pressure: 0 hPa 1006 hPa -
Precipitation: 0 mm    
Historical Graphs
 
 
Ararat weather Find more about Weather in Ararat, AU


 



 


Tabular Data for November 28, 2018
Time Temperature Dew Point Pressure Wind Wind Speed Wind Gust Humidity Rainfall Rate (Hourly)
-17.8 °C -17.8 °C 0 hPa Calm     Humidity % 0 mm
00:04 12.8 °C 10.2 °C 1006.7 hPa SSE 18.5 km/h 9.7 km/h 84 % 0 mm
00:09 12.7 °C 10.3 °C 1006.7 hPa South 20.4 km/h 9 km/h 85 % 0 mm
00:14 12.7 °C 10.2 °C 1006.3 hPa North 20.4 km/h 11.4 km/h 85 % 0 mm
00:19 12.6 °C 10.2 °C 1006.3 hPa South 14.8 km/h 10.9 km/h 85 % 0 mm
00:24 12.6 °C 10.3 °C 1006.3 hPa South 18.5 km/h 12.2 km/h 86 % 0 mm
00:29 12.4 °C 10.2 °C 1006.3 hPa North 16.7 km/h 13.4 km/h 86 % 0 mm
00:34 12.3 °C 10.1 °C 1006.3 hPa South 18.5 km/h 13.5 km/h 86 % 0 mm
00:39 12.2 °C 10.1 °C 1006.3 hPa South 19.3 km/h 16.1 km/h 87 % 0 mm
00:44 12.1 °C 10 °C 1006.3 hPa SSW 20.4 km/h 13.2 km/h 87 % 0 mm
00:49 11.9 °C 10 °C 1006.3 hPa North 18.5 km/h 17.7 km/h 88 % 0 mm
00:54 11.9 °C 9.9 °C 1006.3 hPa SSW 20.4 km/h 14.3 km/h 88 % 0 mm
00:59 11.8 °C 10 °C 1006.3 hPa South 22.2 km/h 14.5 km/h 89 % 0 mm
01:04 11.7 °C 9.9 °C 1006.3 hPa South 25.9 km/h 16.9 km/h 89 % 0 mm
01:09 11.6 °C 9.8 °C 1006.3 hPa South 18.5 km/h 12.1 km/h 89 % 0 mm
01:14 11.6 °C 9.9 °C 1006.3 hPa South 16.7 km/h 8 km/h 90 % 0 mm
01:19 11.4 °C 9.9 °C 1006.3 hPa South 13 km/h 7.7 km/h 90 % 0 mm
01:24 11.4 °C 9.8 °C 1006.3 hPa South 11.1 km/h 3.5 km/h 90 % 0 mm
01:29 11.3 °C 9.8 °C 1006.3 hPa North 7.4 km/h 3.7 km/h 90 % 0 mm
01:34 11.3 °C 9.7 °C 1006.3 hPa South 13 km/h 8 km/h 90 % 0 mm
01:39 11.2 °C 9.8 °C 1006.3 hPa North 9.7 km/h 7.6 km/h 91 % 0 mm
01:44 11.2 °C 9.8 °C 1006 hPa South 11.1 km/h 7.7 km/h 91 % 0 mm
01:49 11.1 °C 9.7 °C 1006 hPa North 18.5 km/h 9.2 km/h 91 % 0 mm
01:54 11 °C 9.6 °C 1006 hPa North 14.8 km/h 5.6 km/h 91 % 0 mm
01:59 10.9 °C 9.5 °C 1006 hPa South 14.8 km/h 8.5 km/h 91 % 0 mm
02:04 10.9 °C 9.5 °C 1006 hPa South 16.1 km/h 12.4 km/h 91 % 0 mm
02:09 10.8 °C 9.6 °C 1006.3 hPa North 11.3 km/h 8.2 km/h 92 % 0 mm
02:14 10.8 °C 9.6 °C 1006 hPa South 13 km/h 9.3 km/h 92 % 0 mm
02:19 10.7 °C 9.5 °C 1006 hPa South 14.5 km/h 7.6 km/h 92 % 0 mm
02:24 10.7 °C 9.4 °C 1006 hPa North 14.8 km/h 9.2 km/h 92 % 0 mm
02:29 10.6 °C 9.3 °C 1006 hPa North 11.1 km/h 8.5 km/h 92 % 0 mm
02:34 10.5 °C 9.3 °C 1006.3 hPa South 11.1 km/h 6.3 km/h 92 % 0 mm
02:39 10.5 °C 9.3 °C 1006.3 hPa North 14.8 km/h 9.8 km/h 92 % 0 mm
02:44 10.6 °C 9.4 °C 1006.3 hPa North 14.8 km/h 5.8 km/h 93 % 0 mm
02:49 10.6 °C 9.4 °C 1006.3 hPa SSW 14.8 km/h 12.9 km/h 93 % 0 mm
02:54 10.6 °C 9.4 °C 1006.3 hPa South 14.8 km/h 11.3 km/h 93 % 0 mm
02:59 10.6 °C 9.4 °C 1006.3 hPa SSW 20.4 km/h 10.5 km/h 93 % 0 mm
03:04 10.6 °C 9.4 °C 1006.3 hPa SSW 16.7 km/h 11.3 km/h 93 % 0 mm
03:09 10.6 °C 9.4 °C 1006.3 hPa SSW 20.4 km/h 16.1 km/h 93 % 0 mm
03:14 10.6 °C 9.4 °C 1006.3 hPa South 14.8 km/h 11.3 km/h 93 % 0 mm
03:19 10.6 °C 9.4 °C 1006.3 hPa South 20.4 km/h 10.5 km/h 93 % 0 mm
03:24 10.6 °C 9.5 °C 1006.3 hPa South 12.9 km/h 8.5 km/h 93 % 0 mm
03:29 10.6 °C 9.5 °C 1006.3 hPa South 11.1 km/h 9.8 km/h 93 % 0 mm
03:34 10.6 °C 9.5 °C 1006.3 hPa SSW 22.2 km/h 10.3 km/h 93 % 0 mm
03:39 10.7 °C 9.6 °C 1006.3 hPa North 11.1 km/h 6.9 km/h 93 % 0 mm
03:44 10.7 °C 9.6 °C 1006.3 hPa SSW 20.4 km/h 12.2 km/h 93 % 0 mm
03:49 10.7 °C 9.6 °C 1006.3 hPa SSW 16.7 km/h 14.3 km/h 93 % 0 mm
03:54 10.7 °C 9.6 °C 1006.3 hPa SSW 14.8 km/h 11.4 km/h 93 % 0 mm
03:59 10.7 °C 9.6 °C 1006.3 hPa SSW 18.5 km/h 9.5 km/h 93 % 0 mm
04:04 10.7 °C 9.6 °C 1006.3 hPa SSW 24.1 km/h 18.8 km/h 93 % 0 mm
04:09 10.8 °C 9.7 °C 1006.3 hPa SSW 20.4 km/h 16.9 km/h 93 % 0 mm
04:14 10.7 °C 9.6 °C 1006.3 hPa South 24.1 km/h 17.1 km/h 93 % 0 mm
04:19 10.7 °C 9.6 °C 1006.7 hPa SSW 24.1 km/h 14.8 km/h 93 % 0 mm
04:24 10.7 °C 9.6 °C 1006.7 hPa North 16.7 km/h 12.4 km/h 93 % 0 mm
04:29 10.8 °C 9.8 °C 1006.7 hPa SSW 18.5 km/h 15 km/h 94 % 0 mm
04:34 10.8 °C 9.9 °C 1006.7 hPa SSW 24.1 km/h 14 km/h 94 % 0 mm
04:39 10.9 °C 9.9 °C 1006.7 hPa SSW 24.1 km/h 15 km/h 94 % 0 mm
04:44 10.9 °C 10 °C 1006.3 hPa SSW 18.5 km/h 13.5 km/h 94 % 0 mm
04:49 11 °C 10.1 °C 1006.3 hPa South 27.8 km/h 16.4 km/h 94 % 0 mm
04:54 11.1 °C 10.1 °C 1006.3 hPa SSW 18.5 km/h 14.5 km/h 94 % 0 mm
04:59 11.1 °C 10.2 °C 1006.7 hPa South 22.2 km/h 10.3 km/h 94 % 0 mm
05:04 11.1 °C 10.2 °C 1006.7 hPa SSW 18.5 km/h 15 km/h 94 % 0 mm
05:09 11.2 °C 10.2 °C 1006.7 hPa South 27.8 km/h 9.3 km/h 94 % 0 mm
05:14 11.2 °C 10.2 °C 1006.7 hPa South 17.7 km/h 15.4 km/h 94 % 0 mm
05:19 11.2 °C 10.3 °C 1007 hPa North 18.5 km/h 6.9 km/h 94 % 0 mm
05:24 11.3 °C 10.5 °C 1007 hPa SSW 22.2 km/h 12.4 km/h 95 % 0 mm
05:29 11.3 °C 10.5 °C 1007 hPa SSW 20.4 km/h 15.1 km/h 95 % 0 mm
05:34 11.4 °C 10.6 °C 1007 hPa SSW 29.6 km/h 11.9 km/h 95 % 0 mm
05:35 11.4 °C 10.6 °C 1007 hPa SSW 18.5 km/h 10.1 km/h 95 % 0 mm
07:44 12.7 °C 11.4 °C 1008 hPa SSW 29 km/h 12.7 km/h 92 % 0 mm
07:49 12.7 °C 11.4 °C 1008 hPa SSE 20.4 km/h 17.5 km/h 92 % 0 mm
07:54 12.8 °C 11.3 °C 1008 hPa SSE 27.8 km/h 10.5 km/h 91 % 0 mm
07:59 12.9 °C 11.4 °C 1008 hPa South 27.8 km/h 19.6 km/h 91 % 0 mm
08:04 12.9 °C 11.3 °C 1008.4 hPa South 29.6 km/h 20.1 km/h 90 % 0 mm
08:09 13.1 °C 11.5 °C 1008.4 hPa SSE 13 km/h 9.8 km/h 90 % 0 mm
08:14 13.2 °C 11.6 °C 1008.4 hPa SSW 18.5 km/h 7.4 km/h 90 % 0 mm
08:19 13.3 °C 11.5 °C 1008.4 hPa South 24.1 km/h 11.7 km/h 89 % 0 mm
08:24 13.4 °C 11.4 °C 1008.7 hPa South 20.4 km/h 11.1 km/h 88 % 0 mm
08:29 13.4 °C 11.4 °C 1008.7 hPa SSE 20.4 km/h 14.3 km/h 88 % 0 mm
08:34 13.4 °C 11.4 °C 1008.7 hPa South 22.2 km/h 10.6 km/h 88 % 0 mm
08:39 13.4 °C 11.5 °C 1008.7 hPa SSE 18.5 km/h 11.6 km/h 88 % 0 mm
08:44 13.6 °C 11.5 °C 1008.4 hPa SE 18.5 km/h 18.5 km/h 87 % 0 mm
08:49 13.9 °C 11.6 °C 1008.4 hPa SE 35.2 km/h 21.1 km/h 86 % 0 mm
08:54 14.1 °C 11.7 °C 1008.7 hPa SSE 19.3 km/h 13.2 km/h 86 % 0 mm
08:59 14.2 °C 11.7 °C 1008.7 hPa South 24.1 km/h 14.8 km/h 85 % 0 mm
09:04 14.3 °C 11.7 °C 1008.7 hPa South 31.5 km/h 18.8 km/h 84 % 0 mm
09:09 14.3 °C 11.5 °C 1008.7 hPa SSE 31.5 km/h 16.6 km/h 83 % 0 mm
09:14 14.6 °C 11.7 °C 1008.7 hPa South 25.9 km/h 15.1 km/h 83 % 0 mm
09:19 14.7 °C 11.7 °C 1008.7 hPa SSE 29.6 km/h 20.1 km/h 82 % 0 mm
09:24 14.8 °C 11.6 °C 1008.7 hPa SE 31.5 km/h 20.3 km/h 81 % 0 mm
09:29 14.7 °C 11.5 °C 1008.7 hPa South 24.1 km/h 14.6 km/h 81 % 0 mm
09:34 14.7 °C 11.5 °C 1008.7 hPa South 27.8 km/h 18.7 km/h 81 % 0 mm
09:39 14.9 °C 11.4 °C 1008.7 hPa South 27.8 km/h 14.5 km/h 80 % 0 mm
09:44 15.4 °C 12 °C 1008.7 hPa SSE 31.5 km/h 18.7 km/h 80 % 0 mm
09:49 15.7 °C 11.4 °C 1008.7 hPa SSE 31.5 km/h 19 km/h 76 % 0 mm
09:54 15.7 °C 11.4 °C 1008.7 hPa SSE 31.5 km/h 24.8 km/h 76 % 0 mm
09:59 16 °C 11.6 °C 1008.7 hPa SSE 24.1 km/h 17.2 km/h 75 % 0 mm
10:04 16.2 °C 11.5 °C 1008.7 hPa SSE 27.8 km/h 19.2 km/h 74 % 0 mm
10:09 16.6 °C 11.9 °C 1008.4 hPa SSE 37 km/h 20.8 km/h 74 % 0 mm
10:14 17 °C 11.7 °C 1008.7 hPa South 25.7 km/h 17.7 km/h 71 % 0 mm
10:19 17.3 °C 11.8 °C 1008.7 hPa SSE 27.8 km/h 21.4 km/h 70 % 0 mm
10:24 17.3 °C 11.3 °C 1008.7 hPa SSE 30.6 km/h 20.9 km/h 68 % 0 mm
10:29 17.4 °C 11.7 °C 1008.7 hPa SSE 38.9 km/h 19.5 km/h 69 % 0 mm
10:34 17.7 °C 11.5 °C 1008.7 hPa South 33.3 km/h 22.4 km/h 67 % 0 mm
10:39 17.7 °C 11 °C 1008.7 hPa SSE 37 km/h 20 km/h 65 % 0 mm
10:44 17.7 °C 11.5 °C 1008.7 hPa SSE 31.5 km/h 21.4 km/h 67 % 0 mm
10:49 17.6 °C 10.9 °C 1008.7 hPa South 24.1 km/h 20.9 km/h 65 % 0 mm
10:54 18 °C 11.6 °C 1008.4 hPa South 27.8 km/h 17.1 km/h 66 % 0 mm
10:59 17.7 °C 10.8 °C 1008.4 hPa SSE 31.5 km/h 12.1 km/h 64 % 0 mm
11:04 17.8 °C 10.9 °C 1008.4 hPa SSE 24.1 km/h 15.6 km/h 64 % 0 mm
11:09 18.1 °C 10.9 °C 1008.4 hPa South 31.5 km/h 18.2 km/h 63 % 0 mm
11:14 18.2 °C 10.6 °C 1008.4 hPa SSE 31.5 km/h 22.4 km/h 61 % 0 mm
11:19 18 °C 10.8 °C 1008.4 hPa SSE 31.5 km/h 19.3 km/h 63 % 0 mm
11:24 18.1 °C 10.4 °C 1008.4 hPa SSE 33.3 km/h 17.4 km/h 61 % 0 mm
11:29 18.3 °C 10.4 °C 1008.4 hPa SSE 33.3 km/h 16.1 km/h 60 % 0 mm
11:34 18.2 °C 10.3 °C 1008.4 hPa SSE 31.5 km/h 16.7 km/h 60 % 0 mm
11:39 18.3 °C 10.4 °C 1008.7 hPa South 33.8 km/h 23.3 km/h 60 % 0 mm
11:44 18 °C 10.4 °C 1008.7 hPa SSE 24.1 km/h 15.1 km/h 61 % 0 mm
11:49 18.3 °C 10.9 °C 1008.7 hPa SSE 24.1 km/h 17.4 km/h 62 % 0 mm
11:54 18.6 °C 10.4 °C 1008.7 hPa South 31.5 km/h 15.6 km/h 59 % 0 mm
11:59 18.9 °C 10.5 °C 1008.4 hPa South 22.2 km/h 19 km/h 58 % 0 mm
12:04 18.6 °C 10.4 °C 1008.4 hPa SSE 27.4 km/h 16.7 km/h 59 % 0 mm
12:09 18.8 °C 10.1 °C 1008.4 hPa South 35.2 km/h 23.7 km/h 57 % 0 mm
12:14 18.8 °C 10.3 °C 1008.4 hPa South 31.5 km/h 13.5 km/h 58 % 0 mm
12:19 19.4 °C 10.7 °C 1008.4 hPa South 22.2 km/h 15 km/h 57 % 0 mm
12:24 19.7 °C 10.4 °C 1008.7 hPa SSE 16.7 km/h 17.7 km/h 55 % 0 mm
12:29 19.3 °C 10.3 °C 1008.4 hPa SSE 31.5 km/h 17.1 km/h 56 % 0 mm
12:34 18.8 °C 9.9 °C 1008.7 hPa South 29 km/h 20.3 km/h 56 % 0 mm
12:39 19.1 °C 10.3 °C 1008.7 hPa South 27.8 km/h 19.2 km/h 57 % 0 mm
12:44 19.7 °C 10.1 °C 1008.7 hPa SSW 25.9 km/h 16.4 km/h 54 % 0 mm
12:49 19.4 °C 9.6 °C 1008.7 hPa SSE 25.9 km/h 16.4 km/h 53 % 0 mm
12:54 19.6 °C 9.7 °C 1008.7 hPa South 37 km/h 23.5 km/h 53 % 0 mm
12:59 20.4 °C 9.7 °C 1008.7 hPa SE 31.5 km/h 24.1 km/h 50 % 0 mm
13:04 20.8 °C 9.7 °C 1008.7 hPa South 24.1 km/h 19 km/h 49 % 0 mm
13:09 20.1 °C 9.3 °C 1008.7 hPa SSE 35.2 km/h 20.4 km/h 50 % 0 mm
13:14 19.7 °C 9.8 °C 1008.7 hPa SE 31.5 km/h 18.2 km/h 53 % 0 mm
13:19 19.9 °C 10 °C 1008.7 hPa South 25.9 km/h 16.4 km/h 53 % 0 mm
13:24 20.3 °C 9.8 °C 1008.7 hPa SSE 29.6 km/h 18.5 km/h 51 % 0 mm
13:29 20.1 °C 10.2 °C 1008.7 hPa South 22.2 km/h 9.7 km/h 53 % 0 mm
13:34 20.3 °C 10.4 °C 1008.7 hPa SSE 24.1 km/h 16.9 km/h 53 % 0 mm
13:39 20.6 °C 10.4 °C 1008.7 hPa South 31.5 km/h 17.5 km/h 52 % 0 mm
13:44 21.3 °C 10.4 °C 1009 hPa SSE 25.9 km/h 20.3 km/h 50 % 0 mm
13:49 20.7 °C 10.2 °C 1009 hPa South 22.2 km/h 17.7 km/h 51 % 0 mm
13:54 19.9 °C 9.7 °C 1009 hPa SSE 25.9 km/h 19.8 km/h 52 % 0 mm
13:59 20.4 °C 9.9 °C 1009 hPa South 29.6 km/h 19.8 km/h 51 % 0 mm
14:04 20.6 °C 10.3 °C 1009 hPa South 25.9 km/h 15.1 km/h 52 % 0 mm
14:09 20.7 °C 9.9 °C 1009 hPa SSW 35.2 km/h 24 km/h 50 % 0 mm
14:14 20.3 °C 10.1 °C 1009 hPa South 31.5 km/h 17.9 km/h 52 % 0 mm
14:19 20 °C 10.1 °C 1009 hPa SSE 33.3 km/h 23.2 km/h 53 % 0 mm
14:24 19.9 °C 10.3 °C 1009 hPa SSW 33.8 km/h 22.2 km/h 54 % 0 mm
14:29 20.5 °C 10.6 °C 1009 hPa South 24.1 km/h 19.3 km/h 53 % 0 mm
14:34 20.2 °C 10.3 °C 1009 hPa South 24.1 km/h 22 km/h 53 % 0 mm
14:39 20.2 °C 10.6 °C 1009 hPa South 31.5 km/h 17.2 km/h 54 % 0 mm
14:44 19.9 °C 10.3 °C 1009 hPa South 24.1 km/h 18.5 km/h 54 % 0 mm
14:49 19.9 °C 10.3 °C 1009 hPa SE 37 km/h 18.7 km/h 54 % 0 mm
14:54 19.9 °C 10.6 °C 1009 hPa South 25.9 km/h 22.4 km/h 55 % 0 mm
14:59 19.9 °C 10.6 °C 1009.4 hPa SE 22.5 km/h 15.6 km/h 55 % 0 mm
15:04 19.8 °C 9.9 °C 1009.4 hPa SSE 25.9 km/h 12.6 km/h 53 % 0 mm
15:09 19.6 °C 10.8 °C 1009.4 hPa SSW 32.2 km/h 26.6 km/h 57 % 0 mm
15:14 19.2 °C 11.2 °C 1009.4 hPa SSE 40.7 km/h 24.5 km/h 60 % 0 mm
15:19 19.4 °C 11.4 °C 1009 hPa South 24.1 km/h 11.9 km/h 60 % 0 mm
15:24 19.6 °C 11.6 °C 1009.4 hPa South 25.9 km/h 26.6 km/h 60 % 0 mm
15:29 18.9 °C 11.5 °C 1009.4 hPa South 31.5 km/h 29.1 km/h 62 % 0 mm
15:34 18.4 °C 11.3 °C 1009.7 hPa South 37 km/h 20.3 km/h 63 % 0 mm
15:39 18.2 °C 11.6 °C 1009.7 hPa South 35.2 km/h 17.1 km/h 65 % 0 mm
15:44 18.2 °C 11.7 °C 1009.7 hPa SSE 25.9 km/h 13.4 km/h 66 % 0 mm
15:49 18.2 °C 11.7 °C 1009.7 hPa South 37 km/h 18.7 km/h 66 % 0 mm
15:54 18.3 °C 12.1 °C 1009.7 hPa North 33.3 km/h 14.8 km/h 67 % 0 mm
15:59 18 °C 11.8 °C 1009.7 hPa SSW 38.9 km/h 24.5 km/h 67 % 0 mm
16:04 18.1 °C 12.1 °C 1009.7 hPa South 37 km/h 26.9 km/h 68 % 0 mm
16:09 17.9 °C 11.7 °C 1009.7 hPa South 35.2 km/h 24.3 km/h 67 % 0 mm
16:14 17.6 °C 11.6 °C 1010 hPa SSW 35.2 km/h 20.6 km/h 68 % 0 mm
16:19 17.7 °C 11.7 °C 1010 hPa South 31.5 km/h 23.5 km/h 68 % 0 mm
16:24 17.8 °C 11.6 °C 1009.7 hPa SSW 35.2 km/h 20.6 km/h 67 % 0 mm
16:29 17.9 °C 11.7 °C 1009.7 hPa SSW 38.6 km/h 23.5 km/h 67 % 0 mm
16:34 17.9 °C 11.7 °C 1009.7 hPa South 27.8 km/h 17.2 km/h 67 % 0 mm
16:39 17.9 °C 11.7 °C 1009.7 hPa South 38.9 km/h 26.7 km/h 67 % 0 mm
16:44 17.8 °C 11.6 °C 1009.7 hPa South 29.6 km/h 18.5 km/h 67 % 0 mm
16:49 18 °C 11.6 °C 1010 hPa South 33.8 km/h 27 km/h 66 % 0 mm
16:54 17.8 °C 11.6 °C 1010 hPa South 24.1 km/h 15.1 km/h 67 % 0 mm
16:59 17.7 °C 11.5 °C 1010 hPa South 24.1 km/h 15.4 km/h 67 % 0 mm
17:04 17.5 °C 11.3 °C 1010 hPa South 35.2 km/h 24.3 km/h 67 % 0 mm
17:09 17.2 °C 11.5 °C 1010 hPa South 27.8 km/h 21.6 km/h 69 % 0 mm
17:14 17.4 °C 11.7 °C 1010 hPa SSW 33.8 km/h 25.6 km/h 69 % 0 mm
17:19 17.3 °C 11.6 °C 1010 hPa SSW 38.6 km/h 23.8 km/h 69 % 0 mm
17:24 17.1 °C 11.4 °C 1010 hPa SSW 35.4 km/h 22.7 km/h 69 % 0 mm
17:29 16.8 °C 11.3 °C 1010.4 hPa South 27.8 km/h 19.6 km/h 70 % 0 mm
17:34 16.6 °C 11.3 °C 1010.4 hPa SSE 40.7 km/h 18.7 km/h 71 % 0 mm
17:39 16.7 °C 11.4 °C 1010.4 hPa South 24.1 km/h 17.7 km/h 71 % 0 mm
17:44 16.6 °C 11.1 °C 1010.4 hPa SSE 25.7 km/h 21.7 km/h 70 % 0 mm
17:49 16.3 °C 11.1 °C 1010.4 hPa South 31.5 km/h 12.4 km/h 71 % 0 mm
17:54 16.3 °C 11.1 °C 1010.4 hPa SSW 33.8 km/h 20.9 km/h 71 % 0 mm
17:59 16.4 °C 11.1 °C 1010.4 hPa South 31.5 km/h 14.6 km/h 71 % 0 mm
18:04 16.6 °C 11.3 °C 1010.4 hPa South 37 km/h 16.3 km/h 71 % 0 mm
18:09 16.6 °C 11.1 °C 1010.4 hPa SSW 32.2 km/h 24.5 km/h 70 % 0 mm
18:14 16.6 °C 11.1 °C 1010.4 hPa SSW 35.4 km/h 21.6 km/h 70 % 0 mm
18:19 16.4 °C 10.9 °C 1010.4 hPa SSW 33.3 km/h 18.3 km/h 70 % 0 mm
18:24 16.3 °C 10.8 °C 1010.4 hPa South 24.1 km/h 8.9 km/h 70 % 0 mm
18:29 16.4 °C 11.1 °C 1010.7 hPa South 24.1 km/h 11.7 km/h 71 % 0 mm
18:34 16.3 °C 10.8 °C 1010.7 hPa South 31.5 km/h 15 km/h 70 % 0 mm
18:39 16.3 °C 10.8 °C 1010.7 hPa SSW 25.9 km/h 12.9 km/h 70 % 0 mm
18:44 16.2 °C 10.9 °C 1010.7 hPa South 20.4 km/h 16.7 km/h 71 % 0 mm
18:49 16.1 °C 10.8 °C 1011.1 hPa SSW 27.8 km/h 23.8 km/h 71 % 0 mm
18:54 15.9 °C 10.6 °C 1011.1 hPa SSW 31.5 km/h 20.9 km/h 71 % 0 mm
18:59 15.7 °C 10.6 °C 1011.1 hPa SSW 31.5 km/h 28.3 km/h 72 % 0 mm
19:04 15.6 °C 10.5 °C 1011.1 hPa South 16.7 km/h 15.9 km/h 72 % 0 mm
19:09 15.5 °C 10.4 °C 1011.1 hPa South 29.6 km/h 18.5 km/h 72 % 0 mm
19:14 15.4 °C 10.6 °C 1011.4 hPa North 18.5 km/h 10.8 km/h 73 % 0 mm
19:19 15.3 °C 10.4 °C 1011.4 hPa South 35.2 km/h 23 km/h 73 % 0 mm
19:24 15.1 °C 10.3 °C 1011.4 hPa South 31.5 km/h 21.4 km/h 73 % 0 mm
19:29 15 °C 10.4 °C 1011.7 hPa SSW 31.5 km/h 13.5 km/h 74 % 0 mm
19:34 15 °C 10.4 °C 1011.7 hPa SSW 27.8 km/h 23.3 km/h 74 % 0 mm
19:39 14.9 °C 10.3 °C 1011.7 hPa South 25.9 km/h 19.3 km/h 74 % 0 mm
19:44 14.7 °C 10.1 °C 1011.7 hPa South 33.3 km/h 18 km/h 74 % 0 mm
19:49 14.7 °C 10.3 °C 1011.7 hPa South 29.6 km/h 15.1 km/h 75 % 0 mm
19:54 14.6 °C 10.2 °C 1011.7 hPa South 25.9 km/h 18.5 km/h 75 % 0 mm
19:59 14.4 °C 10.1 °C 1012.1 hPa South 29.6 km/h 13.7 km/h 75 % 0 mm
20:04 14.4 °C 10.2 °C 1012.1 hPa SSW 22.5 km/h 13.5 km/h 76 % 0 mm
20:09 14.2 °C 10.1 °C 1012.1 hPa South 22.2 km/h 16.1 km/h 76 % 0 mm
20:14 14.1 °C 10.1 °C 1012.1 hPa SSW 22.2 km/h 11.9 km/h 77 % 0 mm
20:19 13.9 °C 10 °C 1012.4 hPa SSW 27.4 km/h 16.6 km/h 77 % 0 mm
20:24 13.8 °C 10.1 °C 1012.4 hPa South 29 km/h 18.2 km/h 78 % 0 mm
20:29 13.8 °C 10 °C 1012.4 hPa South 20.4 km/h 11.9 km/h 78 % 0 mm
20:34 13.7 °C 9.9 °C 1012.4 hPa SSE 29.6 km/h 13.2 km/h 78 % 0 mm
20:39 13.6 °C 9.8 °C 1012.4 hPa SSE 29.6 km/h 16.3 km/h 78 % 0 mm
20:44 13.5 °C 9.9 °C 1012.4 hPa South 25.9 km/h 15.1 km/h 79 % 0 mm
20:49 13.4 °C 9.8 °C 1012.4 hPa South 24.1 km/h 16.9 km/h 79 % 0 mm
20:54 13.3 °C 9.7 °C 1012.4 hPa South 29.6 km/h 19.6 km/h 79 % 0 mm
20:59 13.2 °C 9.8 °C 1012.4 hPa South 25.9 km/h 17.5 km/h 80 % 0 mm
21:04 13.1 °C 9.7 °C 1012.4 hPa South 16.7 km/h 14 km/h 80 % 0 mm
21:09 13 °C 9.6 °C 1012.8 hPa SSW 24.1 km/h 13.4 km/h 80 % 0 mm
21:14 12.9 °C 9.5 °C 1012.8 hPa South 18.5 km/h 13 km/h 80 % 0 mm
21:19 12.8 °C 9.4 °C 1012.8 hPa South 25.9 km/h 20.4 km/h 80 % 0 mm
21:24 12.7 °C 9.3 °C 1012.8 hPa SSW 25.9 km/h 16.4 km/h 80 % 0 mm
21:29 12.7 °C 9.6 °C 1012.8 hPa South 18.5 km/h 9.3 km/h 81 % 0 mm
21:34 12.7 °C 9.5 °C 1012.8 hPa South 14.8 km/h 12.6 km/h 81 % 0 mm
21:39 12.6 °C 9.2 °C 1012.8 hPa South 16.7 km/h 13 km/h 80 % 0 mm
21:44 12.5 °C 9.3 °C 1012.8 hPa SSW 22.2 km/h 11.4 km/h 81 % 0 mm
21:49 12.5 °C 9.3 °C 1013.1 hPa SSW 20.9 km/h 12.4 km/h 81 % 0 mm
21:54 12.4 °C 9.3 °C 1013.1 hPa SSW 20.4 km/h 11.7 km/h 81 % 0 mm
21:59 12.3 °C 9.2 °C 1013.1 hPa SSW 24.1 km/h 12.1 km/h 81 % 0 mm
22:04 12.3 °C 9.1 °C 1013.4 hPa South 22.2 km/h 15.3 km/h 81 % 0 mm
22:09 12.3 °C 9.1 °C 1013.1 hPa South 16.7 km/h 7.9 km/h 81 % 0 mm
22:14 12.2 °C 9.1 °C 1013.4 hPa South 24.1 km/h 12.1 km/h 81 % 0 mm
22:19 12.1 °C 8.9 °C 1013.4 hPa SSW 29 km/h 17.5 km/h 81 % 0 mm
22:24 12.1 °C 8.9 °C 1013.4 hPa SSW 24.1 km/h 15.9 km/h 81 % 0 mm
22:29 12 °C 9 °C 1013.4 hPa North 29 km/h 16.1 km/h 82 % 0 mm
22:34 12 °C 9 °C 1013.4 hPa South 31.5 km/h 18.5 km/h 82 % 0 mm
22:39 11.9 °C 8.9 °C 1013.4 hPa SSW 27.8 km/h 19.3 km/h 82 % 0 mm
22:44 11.9 °C 8.9 °C 1013.4 hPa South 25.9 km/h 16.9 km/h 82 % 0 mm
22:49 11.9 °C 8.9 °C 1013.4 hPa South 24.1 km/h 13.5 km/h 82 % 0 mm
22:54 11.9 °C 8.9 °C 1013.4 hPa South 18.5 km/h 13.4 km/h 82 % 0 mm
22:59 11.8 °C 8.8 °C 1013.4 hPa North 24.1 km/h 9.5 km/h 82 % 0 mm
23:04 11.8 °C 8.8 °C 1013.8 hPa South 20.4 km/h 11.9 km/h 82 % 0 mm
23:09 11.8 °C 8.8 °C 1013.4 hPa South 18.5 km/h 10.6 km/h 82 % 0 mm
23:14 11.8 °C 9 °C 1013.4 hPa South 18.5 km/h 10 km/h 83 % 0 mm
23:19 11.7 °C 8.7 °C 1013.8 hPa South 18.5 km/h 10.6 km/h 82 % 0 mm
23:24 11.7 °C 8.9 °C 1013.4 hPa North 18.5 km/h 13.5 km/h 83 % 0 mm
23:29 11.7 °C 8.9 °C 1013.4 hPa SSW 20.4 km/h 11.3 km/h 83 % 0 mm
23:34 11.7 °C 8.9 °C 1013.4 hPa South 18.5 km/h 10.3 km/h 83 % 0 mm
23:39 11.7 °C 8.9 °C 1013.4 hPa South 14.8 km/h 11.4 km/h 83 % 0 mm
23:44 11.7 °C 8.9 °C 1013.4 hPa South 16.7 km/h 10 km/h 83 % 0 mm
23:49 11.7 °C 8.9 °C 1013.4 hPa SSW 18.5 km/h 7.6 km/h 83 % 0 mm
23:54 11.7 °C 8.9 °C 1013.4 hPa South 18.5 km/h 16.9 km/h 83 % 0 mm
23:59 11.6 °C 8.8 °C 1013.4 hPa South 19.3 km/h 15.3 km/h 83 % 0 mm
Ararat Weather
Compliments of Weather Underground - 2 mb
Click here to send mail.


ABOUT

Live weather data from Ararat, Victoria, Australia, 3377
Data uploaded from Cumulus every 5 minutes to Weather Underground.
This site then downloads the raw data for formatting and display.
Metric and imperial data can be displayed. Graphs and historical data available.
Includes Sun and Moon times and rain image live from BOM.

Check out Ararat Weather on Facebook, Twitter and Google +

Help support ongoing costs by checking out the ads





Follow @AraratWeather